sensor_id;sensor_type;location;lat;lon;timestamp;temperature;humidity
678;DHT22;321;48.814;9.132;2022-08-03T00:01:33;20.50;99.40
678;DHT22;321;48.814;9.132;2022-08-03T00:03:59;20.40;99.50
678;DHT22;321;48.814;9.132;2022-08-03T00:06:25;20.30;99.70
678;DHT22;321;48.814;9.132;2022-08-03T00:08:51;20.30;99.90
678;DHT22;321;48.814;9.132;2022-08-03T00:11:17;20.30;99.90
678;DHT22;321;48.814;9.132;2022-08-03T00:13:42;20.30;99.90
678;DHT22;321;48.814;9.132;2022-08-03T00:16:08;20.20;99.90
678;DHT22;321;48.814;9.132;2022-08-03T00:18:35;20.20;99.90
678;DHT22;321;48.814;9.132;2022-08-03T00:21:01;20.10;99.90
678;DHT22;321;48.814;9.132;2022-08-03T00:23:27;20.20;99.90
678;DHT22;321;48.814;9.132;2022-08-03T00:25:52;20.20;99.90
678;DHT22;321;48.814;9.132;2022-08-03T00:28:18;20.10;99.90
678;DHT22;321;48.814;9.132;2022-08-03T00:30:44;20.20;99.90
678;DHT22;321;48.814;9.132;2022-08-03T00:33:09;20.30;99.90
678;DHT22;321;48.814;9.132;2022-08-03T00:38:01;20.00;99.90
678;DHT22;321;48.814;9.132;2022-08-03T00:40:27;20.00;99.90
678;DHT22;321;48.814;9.132;2022-08-03T00:42:54;20.10;99.90
678;DHT22;321;48.814;9.132;2022-08-03T00:45:22;20.10;99.90
678;DHT22;321;48.814;9.132;2022-08-03T00:47:48;20.00;99.90
678;DHT22;321;48.814;9.132;2022-08-03T00:50:14;20.00;99.90
678;DHT22;321;48.814;9.132;2022-08-03T00:52:40;20.00;99.90
678;DHT22;321;48.814;9.132;2022-08-03T00:55:06;20.00;99.90
678;DHT22;321;48.814;9.132;2022-08-03T00:57:32;19.90;99.90
678;DHT22;321;48.814;9.132;2022-08-03T00:59:58;20.00;99.90
678;DHT22;321;48.814;9.132;2022-08-03T01:02:26;20.00;99.90
678;DHT22;321;48.814;9.132;2022-08-03T01:04:52;19.90;99.90
678;DHT22;321;48.814;9.132;2022-08-03T01:10:35;19.90;99.90
678;DHT22;321;48.814;9.132;2022-08-03T01:13:28;19.90;99.90
678;DHT22;321;48.814;9.132;2022-08-03T01:16:04;19.90;99.90
678;DHT22;321;48.814;9.132;2022-08-03T01:18:40;19.90;99.90
678;DHT22;321;48.814;9.132;2022-08-03T01:21:13;19.90;99.90
678;DHT22;321;48.814;9.132;2022-08-03T01:27:02;19.70;99.90
678;DHT22;321;48.814;9.132;2022-08-03T01:32:12;19.70;99.90
678;DHT22;321;48.814;9.132;2022-08-03T01:34:46;19.60;99.90
678;DHT22;321;48.814;9.132;2022-08-03T01:37:15;19.60;99.90
678;DHT22;321;48.814;9.132;2022-08-03T01:39:43;19.50;99.90
678;DHT22;321;48.814;9.132;2022-08-03T01:42:10;19.60;99.90
678;DHT22;321;48.814;9.132;2022-08-03T01:44:41;19.60;99.90
678;DHT22;321;48.814;9.132;2022-08-03T01:47:09;19.60;99.90
678;DHT22;321;48.814;9.132;2022-08-03T01:49:38;19.60;99.90
678;DHT22;321;48.814;9.132;2022-08-03T01:52:05;19.60;99.90
678;DHT22;321;48.814;9.132;2022-08-03T01:54:39;19.40;99.90
678;DHT22;321;48.814;9.132;2022-08-03T01:57:07;19.50;99.90
678;DHT22;321;48.814;9.132;2022-08-03T01:59:34;19.50;99.90
678;DHT22;321;48.814;9.132;2022-08-03T02:02:01;19.40;99.90
678;DHT22;321;48.814;9.132;2022-08-03T02:04:28;19.40;99.90
678;DHT22;321;48.814;9.132;2022-08-03T02:06:54;19.40;99.90
678;DHT22;321;48.814;9.132;2022-08-03T02:09:21;19.40;99.90
678;DHT22;321;48.814;9.132;2022-08-03T02:11:48;19.40;99.90
678;DHT22;321;48.814;9.132;2022-08-03T02:14:15;19.40;99.90
678;DHT22;321;48.814;9.132;2022-08-03T02:16:42;19.40;99.90
678;DHT22;321;48.814;9.132;2022-08-03T02:19:09;19.50;99.90
678;DHT22;321;48.814;9.132;2022-08-03T02:21:36;19.50;99.90
678;DHT22;321;48.814;9.132;2022-08-03T02:24:03;19.40;99.90
678;DHT22;321;48.814;9.132;2022-08-03T02:26:29;19.20;99.90
678;DHT22;321;48.814;9.132;2022-08-03T02:28:58;19.10;99.90
678;DHT22;321;48.814;9.132;2022-08-03T02:31:30;19.20;99.90
678;DHT22;321;48.814;9.132;2022-08-03T02:34:01;19.20;99.90
678;DHT22;321;48.814;9.132;2022-08-03T02:36:30;19.30;99.90
678;DHT22;321;48.814;9.132;2022-08-03T02:38:58;19.20;99.90
678;DHT22;321;48.814;9.132;2022-08-03T02:41:32;19.10;99.90
678;DHT22;321;48.814;9.132;2022-08-03T02:44:02;19.00;99.90
678;DHT22;321;48.814;9.132;2022-08-03T02:46:32;19.00;99.90
678;DHT22;321;48.814;9.132;2022-08-03T02:48:59;18.90;99.90
678;DHT22;321;48.814;9.132;2022-08-03T02:51:28;18.90;99.90
678;DHT22;321;48.814;9.132;2022-08-03T02:53:55;18.90;99.90
678;DHT22;321;48.814;9.132;2022-08-03T02:56:23;19.10;99.90
678;DHT22;321;48.814;9.132;2022-08-03T02:58:50;19.00;99.90
678;DHT22;321;48.814;9.132;2022-08-03T03:01:19;19.00;99.90
678;DHT22;321;48.814;9.132;2022-08-03T03:03:46;18.90;99.90
678;DHT22;321;48.814;9.132;2022-08-03T03:06:14;18.90;99.90
678;DHT22;321;48.814;9.132;2022-08-03T03:08:41;19.00;99.90
678;DHT22;321;48.814;9.132;2022-08-03T03:11:08;19.00;99.90
678;DHT22;321;48.814;9.132;2022-08-03T03:13:34;19.00;99.90
678;DHT22;321;48.814;9.132;2022-08-03T03:16:03;18.90;99.90
678;DHT22;321;48.814;9.132;2022-08-03T03:18:31;18.90;99.90
678;DHT22;321;48.814;9.132;2022-08-03T03:20:58;19.00;99.90
678;DHT22;321;48.814;9.132;2022-08-03T03:23:25;18.90;99.90
678;DHT22;321;48.814;9.132;2022-08-03T03:25:52;18.90;99.90
678;DHT22;321;48.814;9.132;2022-08-03T03:28:20;18.90;99.90
678;DHT22;321;48.814;9.132;2022-08-03T03:30:46;18.80;99.90
678;DHT22;321;48.814;9.132;2022-08-03T03:35:40;18.80;99.90
678;DHT22;321;48.814;9.132;2022-08-03T03:38:06;18.80;99.90
678;DHT22;321;48.814;9.132;2022-08-03T03:40:34;18.80;99.90
678;DHT22;321;48.814;9.132;2022-08-03T03:43:00;18.70;99.90
678;DHT22;321;48.814;9.132;2022-08-03T03:45:29;18.80;99.90
678;DHT22;321;48.814;9.132;2022-08-03T03:47:55;18.70;99.90
678;DHT22;321;48.814;9.132;2022-08-03T03:50:21;18.70;99.90
678;DHT22;321;48.814;9.132;2022-08-03T03:52:48;18.70;99.90
678;DHT22;321;48.814;9.132;2022-08-03T03:55:17;18.70;99.90
678;DHT22;321;48.814;9.132;2022-08-03T03:57:43;18.80;99.90
678;DHT22;321;48.814;9.132;2022-08-03T04:00:10;18.70;99.90
678;DHT22;321;48.814;9.132;2022-08-03T04:02:38;18.70;99.90
678;DHT22;321;48.814;9.132;2022-08-03T04:05:04;18.70;99.90
678;DHT22;321;48.814;9.132;2022-08-03T04:07:59;18.60;99.90
678;DHT22;321;48.814;9.132;2022-08-03T04:10:53;18.60;99.90
678;DHT22;321;48.814;9.132;2022-08-03T04:13:31;19.00;99.90
678;DHT22;321;48.814;9.132;2022-08-03T04:15:58;18.70;99.90
678;DHT22;321;48.814;9.132;2022-08-03T04:18:26;18.60;99.90
678;DHT22;321;48.814;9.132;2022-08-03T04:20:54;18.60;99.90
678;DHT22;321;48.814;9.132;2022-08-03T04:23:21;18.90;99.90
678;DHT22;321;48.814;9.132;2022-08-03T04:25:50;18.70;99.90
678;DHT22;321;48.814;9.132;2022-08-03T04:28:18;18.70;99.90
678;DHT22;321;48.814;9.132;2022-08-03T04:30:46;18.70;99.90
678;DHT22;321;48.814;9.132;2022-08-03T04:33:13;18.70;99.90
678;DHT22;321;48.814;9.132;2022-08-03T04:35:42;19.00;99.90
678;DHT22;321;48.814;9.132;2022-08-03T04:38:10;19.00;99.90
678;DHT22;321;48.814;9.132;2022-08-03T04:40:40;19.00;99.90
678;DHT22;321;48.814;9.132;2022-08-03T04:43:09;19.00;99.90
678;DHT22;321;48.814;9.132;2022-08-03T04:45:35;19.20;99.90
678;DHT22;321;48.814;9.132;2022-08-03T04:48:02;19.20;99.90
678;DHT22;321;48.814;9.132;2022-08-03T04:50:28;19.30;99.90
678;DHT22;321;48.814;9.132;2022-08-03T04:52:54;19.40;99.90
678;DHT22;321;48.814;9.132;2022-08-03T04:55:28;19.50;99.90
678;DHT22;321;48.814;9.132;2022-08-03T04:57:54;19.50;99.90
678;DHT22;321;48.814;9.132;2022-08-03T05:00:20;19.60;99.90
678;DHT22;321;48.814;9.132;2022-08-03T05:02:46;19.70;99.90
678;DHT22;321;48.814;9.132;2022-08-03T05:05:11;19.80;99.90
678;DHT22;321;48.814;9.132;2022-08-03T05:07:37;19.90;99.90
678;DHT22;321;48.814;9.132;2022-08-03T05:10:05;20.10;99.90
678;DHT22;321;48.814;9.132;2022-08-03T05:12:31;20.10;99.90
678;DHT22;321;48.814;9.132;2022-08-03T05:14:57;20.20;99.90
678;DHT22;321;48.814;9.132;2022-08-03T05:17:22;20.40;99.90
678;DHT22;321;48.814;9.132;2022-08-03T05:22:14;20.70;99.90
678;DHT22;321;48.814;9.132;2022-08-03T05:24:39;20.90;99.90
678;DHT22;321;48.814;9.132;2022-08-03T05:27:05;21.00;99.90
678;DHT22;321;48.814;9.132;2022-08-03T05:31:56;21.40;99.90
678;DHT22;321;48.814;9.132;2022-08-03T05:34:22;21.40;99.90
678;DHT22;321;48.814;9.132;2022-08-03T05:36:47;21.70;99.90
678;DHT22;321;48.814;9.132;2022-08-03T05:39:13;22.00;99.90
678;DHT22;321;48.814;9.132;2022-08-03T05:41:38;22.10;99.90
678;DHT22;321;48.814;9.132;2022-08-03T05:44:04;22.30;99.90
678;DHT22;321;48.814;9.132;2022-08-03T05:46:30;22.50;99.90
678;DHT22;321;48.814;9.132;2022-08-03T05:48:56;22.50;99.90
678;DHT22;321;48.814;9.132;2022-08-03T05:51:21;22.50;99.90
678;DHT22;321;48.814;9.132;2022-08-03T05:53:47;22.60;99.90
678;DHT22;321;48.814;9.132;2022-08-03T05:56:13;22.70;99.90
678;DHT22;321;48.814;9.132;2022-08-03T05:58:39;22.70;99.90
678;DHT22;321;48.814;9.132;2022-08-03T06:01:04;22.80;99.90
678;DHT22;321;48.814;9.132;2022-08-03T06:03:30;22.80;99.90
678;DHT22;321;48.814;9.132;2022-08-03T06:05:55;22.80;99.90
678;DHT22;321;48.814;9.132;2022-08-03T06:08:22;23.10;99.90
678;DHT22;321;48.814;9.132;2022-08-03T06:10:48;23.20;99.90
678;DHT22;321;48.814;9.132;2022-08-03T06:13:14;23.30;99.90
678;DHT22;321;48.814;9.132;2022-08-03T06:15:40;23.50;99.90
678;DHT22;321;48.814;9.132;2022-08-03T06:18:06;23.50;99.80
678;DHT22;321;48.814;9.132;2022-08-03T06:20:32;23.60;99.90
678;DHT22;321;48.814;9.132;2022-08-03T06:22:58;23.80;99.40
678;DHT22;321;48.814;9.132;2022-08-03T06:25:25;23.80;99.50
678;DHT22;321;48.814;9.132;2022-08-03T06:27:50;24.00;99.10
678;DHT22;321;48.814;9.132;2022-08-03T06:30:16;24.20;98.90
678;DHT22;321;48.814;9.132;2022-08-03T06:32:43;24.50;98.50
678;DHT22;321;48.814;9.132;2022-08-03T06:35:09;24.60;98.30
678;DHT22;321;48.814;9.132;2022-08-03T06:37:45;24.90;97.70
678;DHT22;321;48.814;9.132;2022-08-03T06:40:12;25.30;97.10
678;DHT22;321;48.814;9.132;2022-08-03T06:42:39;26.60;95.80
678;DHT22;321;48.814;9.132;2022-08-03T06:45:06;28.50;92.20
678;DHT22;321;48.814;9.132;2022-08-03T06:47:33;31.40;90.60
678;DHT22;321;48.814;9.132;2022-08-03T06:49:59;31.70;79.40
678;DHT22;321;48.814;9.132;2022-08-03T06:52:24;33.20;72.50
678;DHT22;321;48.814;9.132;2022-08-03T06:54:50;34.20;67.50
678;DHT22;321;48.814;9.132;2022-08-03T06:57:15;35.40;64.30
678;DHT22;321;48.814;9.132;2022-08-03T06:59:43;36.00;59.90
678;DHT22;321;48.814;9.132;2022-08-03T07:02:08;36.30;57.20
678;DHT22;321;48.814;9.132;2022-08-03T07:04:34;34.60;59.00
678;DHT22;321;48.814;9.132;2022-08-03T07:07:00;33.70;61.00
678;DHT22;321;48.814;9.132;2022-08-03T07:09:26;34.00;60.70
678;DHT22;321;48.814;9.132;2022-08-03T07:11:52;34.00;59.80
678;DHT22;321;48.814;9.132;2022-08-03T07:14:18;33.60;59.40
678;DHT22;321;48.814;9.132;2022-08-03T07:16:44;33.00;60.60
678;DHT22;321;48.814;9.132;2022-08-03T07:19:09;33.30;61.10
678;DHT22;321;48.814;9.132;2022-08-03T07:21:35;32.90;60.80
678;DHT22;321;48.814;9.132;2022-08-03T07:24:00;32.60;60.70
678;DHT22;321;48.814;9.132;2022-08-03T07:26:26;32.00;63.00
678;DHT22;321;48.814;9.132;2022-08-03T07:28:51;31.90;63.50
678;DHT22;321;48.814;9.132;2022-08-03T07:31:17;31.60;63.90
678;DHT22;321;48.814;9.132;2022-08-03T07:33:43;31.60;64.30
678;DHT22;321;48.814;9.132;2022-08-03T07:36:08;31.90;63.90
678;DHT22;321;48.814;9.132;2022-08-03T07:38:34;32.90;63.20
678;DHT22;321;48.814;9.132;2022-08-03T07:41:01;34.60;58.70
678;DHT22;321;48.814;9.132;2022-08-03T07:43:27;36.70;55.10
678;DHT22;321;48.814;9.132;2022-08-03T07:45:52;38.60;51.70
678;DHT22;321;48.814;9.132;2022-08-03T07:48:18;39.90;49.40
678;DHT22;321;48.814;9.132;2022-08-03T07:50:44;41.10;47.10
678;DHT22;321;48.814;9.132;2022-08-03T07:53:10;41.80;45.00
678;DHT22;321;48.814;9.132;2022-08-03T07:55:36;41.70;43.90
678;DHT22;321;48.814;9.132;2022-08-03T07:58:02;42.10;43.00
678;DHT22;321;48.814;9.132;2022-08-03T08:00:29;41.80;42.80
678;DHT22;321;48.814;9.132;2022-08-03T08:02:54;41.70;42.30
678;DHT22;321;48.814;9.132;2022-08-03T08:05:20;40.50;41.90
678;DHT22;321;48.814;9.132;2022-08-03T08:07:45;40.20;42.80
678;DHT22;321;48.814;9.132;2022-08-03T08:10:11;40.80;42.30
678;DHT22;321;48.814;9.132;2022-08-03T08:12:37;39.80;42.20
678;DHT22;321;48.814;9.132;2022-08-03T08:15:03;37.40;46.20
678;DHT22;321;48.814;9.132;2022-08-03T08:17:29;38.60;45.80
678;DHT22;321;48.814;9.132;2022-08-03T08:19:54;39.00;44.70
678;DHT22;321;48.814;9.132;2022-08-03T08:22:20;39.40;43.70
678;DHT22;321;48.814;9.132;2022-08-03T08:24:46;39.30;43.20
678;DHT22;321;48.814;9.132;2022-08-03T08:27:13;38.50;44.60
678;DHT22;321;48.814;9.132;2022-08-03T08:29:39;38.90;44.40
678;DHT22;321;48.814;9.132;2022-08-03T08:32:05;39.60;42.70
678;DHT22;321;48.814;9.132;2022-08-03T08:34:30;39.40;43.00
678;DHT22;321;48.814;9.132;2022-08-03T08:36:56;40.30;41.80
678;DHT22;321;48.814;9.132;2022-08-03T08:39:21;39.10;42.30
678;DHT22;321;48.814;9.132;2022-08-03T08:41:50;39.10;42.60
678;DHT22;321;48.814;9.132;2022-08-03T08:44:16;39.30;41.60
678;DHT22;321;48.814;9.132;2022-08-03T08:46:42;39.30;42.10
678;DHT22;321;48.814;9.132;2022-08-03T08:49:08;39.20;42.60
678;DHT22;321;48.814;9.132;2022-08-03T08:51:35;37.70;43.20
678;DHT22;321;48.814;9.132;2022-08-03T08:54:06;38.00;44.20
678;DHT22;321;48.814;9.132;2022-08-03T08:56:32;37.70;44.30
678;DHT22;321;48.814;9.132;2022-08-03T08:59:00;38.30;43.50
678;DHT22;321;48.814;9.132;2022-08-03T09:01:26;39.00;42.40
678;DHT22;321;48.814;9.132;2022-08-03T09:03:52;39.60;42.00
678;DHT22;321;48.814;9.132;2022-08-03T09:06:22;39.70;41.30
678;DHT22;321;48.814;9.132;2022-08-03T09:08:48;38.80;41.90
678;DHT22;321;48.814;9.132;2022-08-03T09:11:13;37.80;42.80
678;DHT22;321;48.814;9.132;2022-08-03T09:13:39;38.60;43.10
678;DHT22;321;48.814;9.132;2022-08-03T09:18:35;38.40;41.70
678;DHT22;321;48.814;9.132;2022-08-03T09:23:52;39.90;40.30
678;DHT22;321;48.814;9.132;2022-08-03T09:26:28;39.90;41.00
678;DHT22;321;48.814;9.132;2022-08-03T09:28:59;40.10;40.30
678;DHT22;321;48.814;9.132;2022-08-03T09:31:36;40.60;38.90
678;DHT22;321;48.814;9.132;2022-08-03T09:34:05;41.30;39.60
678;DHT22;321;48.814;9.132;2022-08-03T09:36:39;42.00;37.00
678;DHT22;321;48.814;9.132;2022-08-03T09:39:08;41.10;37.00
678;DHT22;321;48.814;9.132;2022-08-03T09:41:40;39.40;38.40
678;DHT22;321;48.814;9.132;2022-08-03T09:44:06;39.90;39.30
678;DHT22;321;48.814;9.132;2022-08-03T09:46:49;39.30;39.70
678;DHT22;321;48.814;9.132;2022-08-03T09:49:15;40.20;39.10
678;DHT22;321;48.814;9.132;2022-08-03T09:51:41;41.00;39.10
678;DHT22;321;48.814;9.132;2022-08-03T09:54:07;42.10;37.20
678;DHT22;321;48.814;9.132;2022-08-03T09:56:46;42.90;35.80
678;DHT22;321;48.814;9.132;2022-08-03T09:59:15;43.40;34.40
678;DHT22;321;48.814;9.132;2022-08-03T10:01:47;42.90;34.90
678;DHT22;321;48.814;9.132;2022-08-03T10:04:14;43.80;34.00
678;DHT22;321;48.814;9.132;2022-08-03T10:06:43;45.20;32.50
678;DHT22;321;48.814;9.132;2022-08-03T10:09:14;45.80;30.50
678;DHT22;321;48.814;9.132;2022-08-03T10:11:41;45.60;31.10
678;DHT22;321;48.814;9.132;2022-08-03T10:14:09;45.40;31.60
678;DHT22;321;48.814;9.132;2022-08-03T10:16:36;46.30;30.80
678;DHT22;321;48.814;9.132;2022-08-03T10:19:04;44.40;32.30
678;DHT22;321;48.814;9.132;2022-08-03T10:21:36;44.80;31.90
678;DHT22;321;48.814;9.132;2022-08-03T10:24:07;43.00;32.80
678;DHT22;321;48.814;9.132;2022-08-03T10:26:37;43.50;32.70
678;DHT22;321;48.814;9.132;2022-08-03T10:29:06;43.90;32.50
678;DHT22;321;48.814;9.132;2022-08-03T10:31:38;44.80;31.70
678;DHT22;321;48.814;9.132;2022-08-03T10:34:10;44.70;30.90
678;DHT22;321;48.814;9.132;2022-08-03T10:36:40;43.30;32.40
678;DHT22;321;48.814;9.132;2022-08-03T10:39:06;43.50;32.30
678;DHT22;321;48.814;9.132;2022-08-03T10:41:37;42.50;32.70
678;DHT22;321;48.814;9.132;2022-08-03T10:44:09;42.00;33.60
678;DHT22;321;48.814;9.132;2022-08-03T10:46:37;41.80;33.00
678;DHT22;321;48.814;9.132;2022-08-03T10:49:04;40.80;43.00
678;DHT22;321;48.814;9.132;2022-08-03T10:51:30;40.90;35.40
678;DHT22;321;48.814;9.132;2022-08-03T10:53:57;41.00;35.30
678;DHT22;321;48.814;9.132;2022-08-03T11:02:01;42.50;32.90
678;DHT22;321;48.814;9.132;2022-08-03T11:04:28;41.90;34.00
678;DHT22;321;48.814;9.132;2022-08-03T11:07:22;41.80;33.00
678;DHT22;321;48.814;9.132;2022-08-03T11:09:52;40.80;34.90
678;DHT22;321;48.814;9.132;2022-08-03T11:14:49;41.50;33.40
678;DHT22;321;48.814;9.132;2022-08-03T11:17:15;40.90;34.60
678;DHT22;321;48.814;9.132;2022-08-03T11:19:48;41.00;33.60
678;DHT22;321;48.814;9.132;2022-08-03T11:22:14;39.40;36.60
678;DHT22;321;48.814;9.132;2022-08-03T11:27:17;38.20;37.90
678;DHT22;321;48.814;9.132;2022-08-03T11:29:56;37.50;38.60
678;DHT22;321;48.814;9.132;2022-08-03T11:43:02;40.00;35.60
678;DHT22;321;48.814;9.132;2022-08-03T11:45:28;39.80;35.40
678;DHT22;321;48.814;9.132;2022-08-03T11:47:56;39.50;35.30
678;DHT22;321;48.814;9.132;2022-08-03T11:50:23;40.10;36.00
678;DHT22;321;48.814;9.132;2022-08-03T11:52:49;39.00;35.60
678;DHT22;321;48.814;9.132;2022-08-03T11:55:17;38.50;37.20
678;DHT22;321;48.814;9.132;2022-08-03T11:57:45;39.40;36.70
678;DHT22;321;48.814;9.132;2022-08-03T12:00:29;39.40;36.00
678;DHT22;321;48.814;9.132;2022-08-03T12:03:00;39.90;35.70
678;DHT22;321;48.814;9.132;2022-08-03T12:05:41;39.70;35.50
678;DHT22;321;48.814;9.132;2022-08-03T12:08:08;39.00;36.50
678;DHT22;321;48.814;9.132;2022-08-03T12:10:35;38.10;37.40
678;DHT22;321;48.814;9.132;2022-08-03T12:13:02;37.00;38.50
678;DHT22;321;48.814;9.132;2022-08-03T12:15:31;36.30;40.40
678;DHT22;321;48.814;9.132;2022-08-03T12:17:58;35.90;40.90
678;DHT22;321;48.814;9.132;2022-08-03T12:20:27;35.60;41.40
678;DHT22;321;48.814;9.132;2022-08-03T12:22:52;35.00;42.00
678;DHT22;321;48.814;9.132;2022-08-03T12:25:22;34.50;43.50
678;DHT22;321;48.814;9.132;2022-08-03T12:27:48;34.30;43.80
678;DHT22;321;48.814;9.132;2022-08-03T12:30:14;33.80;44.40
678;DHT22;321;48.814;9.132;2022-08-03T12:32:42;34.00;44.50
678;DHT22;321;48.814;9.132;2022-08-03T12:35:08;34.00;44.30
678;DHT22;321;48.814;9.132;2022-08-03T12:37:35;34.10;44.60
678;DHT22;321;48.814;9.132;2022-08-03T12:40:01;33.90;44.70
678;DHT22;321;48.814;9.132;2022-08-03T12:42:34;33.80;45.20
678;DHT22;321;48.814;9.132;2022-08-03T12:45:27;33.80;45.00
678;DHT22;321;48.814;9.132;2022-08-03T12:47:55;33.60;45.50
678;DHT22;321;48.814;9.132;2022-08-03T12:50:26;33.60;45.60
678;DHT22;321;48.814;9.132;2022-08-03T12:52:52;33.70;45.90
678;DHT22;321;48.814;9.132;2022-08-03T12:55:21;33.70;45.70
678;DHT22;321;48.814;9.132;2022-08-03T12:57:48;33.80;45.50
678;DHT22;321;48.814;9.132;2022-08-03T13:00:16;33.70;45.40
678;DHT22;321;48.814;9.132;2022-08-03T13:02:42;33.70;45.70
678;DHT22;321;48.814;9.132;2022-08-03T13:05:13;33.50;46.30
678;DHT22;321;48.814;9.132;2022-08-03T13:07:43;33.50;46.20
678;DHT22;321;48.814;9.132;2022-08-03T13:10:10;33.50;46.70
678;DHT22;321;48.814;9.132;2022-08-03T13:12:47;33.30;46.40
678;DHT22;321;48.814;9.132;2022-08-03T13:15:13;33.10;46.70
678;DHT22;321;48.814;9.132;2022-08-03T13:17:39;33.00;47.00
678;DHT22;321;48.814;9.132;2022-08-03T13:20:05;32.80;47.10
678;DHT22;321;48.814;9.132;2022-08-03T13:22:31;32.70;47.40
678;DHT22;321;48.814;9.132;2022-08-03T13:24:58;32.70;47.30
678;DHT22;321;48.814;9.132;2022-08-03T13:27:26;32.80;47.40
678;DHT22;321;48.814;9.132;2022-08-03T13:29:53;32.90;47.90
678;DHT22;321;48.814;9.132;2022-08-03T13:32:19;32.90;47.50
678;DHT22;321;48.814;9.132;2022-08-03T13:34:45;32.80;47.10
678;DHT22;321;48.814;9.132;2022-08-03T13:37:11;32.90;47.20
678;DHT22;321;48.814;9.132;2022-08-03T13:39:38;32.90;47.30
678;DHT22;321;48.814;9.132;2022-08-03T13:42:04;32.80;47.40
678;DHT22;321;48.814;9.132;2022-08-03T13:44:33;32.70;47.20
678;DHT22;321;48.814;9.132;2022-08-03T13:47:01;32.80;47.50
678;DHT22;321;48.814;9.132;2022-08-03T13:49:27;32.90;47.70
678;DHT22;321;48.814;9.132;2022-08-03T13:51:53;33.00;47.40
678;DHT22;321;48.814;9.132;2022-08-03T13:54:19;33.00;47.40
678;DHT22;321;48.814;9.132;2022-08-03T13:56:44;33.00;47.40
678;DHT22;321;48.814;9.132;2022-08-03T13:59:17;33.10;47.40
678;DHT22;321;48.814;9.132;2022-08-03T14:01:42;33.10;47.70
678;DHT22;321;48.814;9.132;2022-08-03T14:04:08;33.00;47.20
678;DHT22;321;48.814;9.132;2022-08-03T14:06:34;33.00;47.30
678;DHT22;321;48.814;9.132;2022-08-03T14:08:59;32.90;47.20
678;DHT22;321;48.814;9.132;2022-08-03T14:11:25;32.90;47.10
678;DHT22;321;48.814;9.132;2022-08-03T14:13:50;32.90;47.70
678;DHT22;321;48.814;9.132;2022-08-03T14:16:16;33.00;47.40
678;DHT22;321;48.814;9.132;2022-08-03T14:18:41;32.90;47.50
678;DHT22;321;48.814;9.132;2022-08-03T14:21:07;32.70;47.70
678;DHT22;321;48.814;9.132;2022-08-03T14:23:34;32.80;47.40
678;DHT22;321;48.814;9.132;2022-08-03T14:26:00;32.70;47.60
678;DHT22;321;48.814;9.132;2022-08-03T14:28:26;32.70;47.20
678;DHT22;321;48.814;9.132;2022-08-03T14:30:52;32.70;47.70
678;DHT22;321;48.814;9.132;2022-08-03T14:33:19;32.60;47.90
678;DHT22;321;48.814;9.132;2022-08-03T14:35:44;32.60;48.20
678;DHT22;321;48.814;9.132;2022-08-03T14:38:10;32.60;47.60
678;DHT22;321;48.814;9.132;2022-08-03T14:40:36;32.60;47.80
678;DHT22;321;48.814;9.132;2022-08-03T14:43:01;32.50;47.80
678;DHT22;321;48.814;9.132;2022-08-03T14:45:27;32.40;48.00
678;DHT22;321;48.814;9.132;2022-08-03T14:47:53;32.30;47.90
678;DHT22;321;48.814;9.132;2022-08-03T14:50:18;32.40;48.50
678;DHT22;321;48.814;9.132;2022-08-03T14:52:44;32.50;47.80
678;DHT22;321;48.814;9.132;2022-08-03T14:55:09;32.50;47.60
678;DHT22;321;48.814;9.132;2022-08-03T14:57:35;32.40;47.40
678;DHT22;321;48.814;9.132;2022-08-03T15:00:00;32.40;47.80
678;DHT22;321;48.814;9.132;2022-08-03T15:02:26;32.50;47.90
678;DHT22;321;48.814;9.132;2022-08-03T15:04:54;32.50;47.80
678;DHT22;321;48.814;9.132;2022-08-03T15:07:20;32.60;48.00
678;DHT22;321;48.814;9.132;2022-08-03T15:09:46;32.70;47.80
678;DHT22;321;48.814;9.132;2022-08-03T15:12:11;32.50;48.10
678;DHT22;321;48.814;9.132;2022-08-03T15:14:37;32.30;48.10
678;DHT22;321;48.814;9.132;2022-08-03T15:17:02;32.30;48.20
678;DHT22;321;48.814;9.132;2022-08-03T15:19:28;32.30;48.20
678;DHT22;321;48.814;9.132;2022-08-03T15:21:54;32.40;48.40
678;DHT22;321;48.814;9.132;2022-08-03T15:24:19;32.40;48.30
678;DHT22;321;48.814;9.132;2022-08-03T15:26:45;32.40;48.40
678;DHT22;321;48.814;9.132;2022-08-03T15:29:10;32.40;48.50
678;DHT22;321;48.814;9.132;2022-08-03T15:31:37;32.40;49.10
678;DHT22;321;48.814;9.132;2022-08-03T15:34:04;32.50;48.70
678;DHT22;321;48.814;9.132;2022-08-03T15:36:31;32.40;48.10
678;DHT22;321;48.814;9.132;2022-08-03T15:38:56;32.50;48.00
678;DHT22;321;48.814;9.132;2022-08-03T15:41:22;32.40;48.10
678;DHT22;321;48.814;9.132;2022-08-03T15:43:47;32.40;48.50
678;DHT22;321;48.814;9.132;2022-08-03T15:46:13;32.50;48.60
678;DHT22;321;48.814;9.132;2022-08-03T15:48:39;32.50;49.30
678;DHT22;321;48.814;9.132;2022-08-03T15:51:05;32.40;49.00
678;DHT22;321;48.814;9.132;2022-08-03T15:53:31;32.40;49.80
678;DHT22;321;48.814;9.132;2022-08-03T15:55:58;32.20;48.30
678;DHT22;321;48.814;9.132;2022-08-03T15:58:23;32.20;48.30
678;DHT22;321;48.814;9.132;2022-08-03T16:00:57;32.30;49.80
678;DHT22;321;48.814;9.132;2022-08-03T16:03:23;32.30;48.50
678;DHT22;321;48.814;9.132;2022-08-03T16:05:49;32.30;48.40
678;DHT22;321;48.814;9.132;2022-08-03T16:08:14;32.30;48.40
678;DHT22;321;48.814;9.132;2022-08-03T16:10:40;32.40;48.20
678;DHT22;321;48.814;9.132;2022-08-03T16:13:06;32.40;48.20
678;DHT22;321;48.814;9.132;2022-08-03T16:15:32;32.30;48.20
678;DHT22;321;48.814;9.132;2022-08-03T16:17:58;32.30;47.20
678;DHT22;321;48.814;9.132;2022-08-03T16:20:23;32.30;47.60
678;DHT22;321;48.814;9.132;2022-08-03T16:22:50;32.30;46.80
678;DHT22;321;48.814;9.132;2022-08-03T16:25:16;32.20;46.90
678;DHT22;321;48.814;9.132;2022-08-03T16:27:42;32.30;46.40
678;DHT22;321;48.814;9.132;2022-08-03T16:30:09;32.30;46.00
678;DHT22;321;48.814;9.132;2022-08-03T16:32:35;32.30;47.00
678;DHT22;321;48.814;9.132;2022-08-03T16:35:05;32.20;46.70
678;DHT22;321;48.814;9.132;2022-08-03T16:37:31;32.20;45.90
678;DHT22;321;48.814;9.132;2022-08-03T16:39:57;32.20;46.70
678;DHT22;321;48.814;9.132;2022-08-03T16:42:22;32.20;46.10
678;DHT22;321;48.814;9.132;2022-08-03T16:44:48;32.10;46.10
678;DHT22;321;48.814;9.132;2022-08-03T16:47:14;32.20;46.10
678;DHT22;321;48.814;9.132;2022-08-03T16:49:39;32.10;45.90
678;DHT22;321;48.814;9.132;2022-08-03T16:52:05;32.20;45.80
678;DHT22;321;48.814;9.132;2022-08-03T16:54:33;32.20;46.10
678;DHT22;321;48.814;9.132;2022-08-03T16:56:58;32.10;45.60
678;DHT22;321;48.814;9.132;2022-08-03T16:59:24;32.10;45.00
678;DHT22;321;48.814;9.132;2022-08-03T17:01:49;32.30;45.20
678;DHT22;321;48.814;9.132;2022-08-03T17:04:15;32.20;44.80
678;DHT22;321;48.814;9.132;2022-08-03T17:06:42;32.20;45.10
678;DHT22;321;48.814;9.132;2022-08-03T17:09:10;32.20;46.70
678;DHT22;321;48.814;9.132;2022-08-03T17:11:41;32.00;45.50
678;DHT22;321;48.814;9.132;2022-08-03T17:14:06;32.00;46.30
678;DHT22;321;48.814;9.132;2022-08-03T17:16:32;31.90;46.10
678;DHT22;321;48.814;9.132;2022-08-03T17:19:02;32.00;46.20
678;DHT22;321;48.814;9.132;2022-08-03T17:21:30;32.00;45.70